createdAt,value
2018-11-10T00:00:57.505Z,4.00
2018-11-10T00:01:57.294Z,4.00
2018-11-10T00:02:57.323Z,4.00
2018-11-10T00:03:57.356Z,4.00
2018-11-10T00:04:57.337Z,4.00
2018-11-10T00:05:57.380Z,4.00
2018-11-10T00:06:57.429Z,4.00
2018-11-10T00:07:57.477Z,4.00
2018-11-10T00:08:57.525Z,4.00
2018-11-10T00:09:57.557Z,4.00
2018-11-10T00:10:57.586Z,4.00
2018-11-10T00:11:57.570Z,4.00
2018-11-10T00:12:57.661Z,4.00
2018-11-10T00:13:57.638Z,4.00
2018-11-10T00:14:57.688Z,4.00
2018-11-10T00:15:57.708Z,4.00
2018-11-10T00:16:57.765Z,4.00
2018-11-10T00:17:57.821Z,4.00
2018-11-10T00:18:57.858Z,4.00
2018-11-10T00:19:57.886Z,4.00
2018-11-10T00:20:57.887Z,4.00
2018-11-10T00:21:57.901Z,4.00
2018-11-10T00:22:57.983Z,4.00
2018-11-10T00:23:57.969Z,4.00
2018-11-10T00:24:58.049Z,4.00
2018-11-10T00:25:58.047Z,4.00
2018-11-10T00:26:58.065Z,4.00
2018-11-10T00:27:58.099Z,4.00
2018-11-10T00:28:58.181Z,4.00
2018-11-10T00:29:58.168Z,4.00
2018-11-10T00:30:58.248Z,4.00
2018-11-10T00:31:58.250Z,4.00
2018-11-10T00:32:58.262Z,4.00
2018-11-10T00:33:58.345Z,4.00
2018-11-10T00:34:58.383Z,4.00
2018-11-10T00:35:58.360Z,4.00
2018-11-10T00:36:58.696Z,4.00
2018-11-10T00:37:58.433Z,4.00
2018-11-10T00:38:58.527Z,4.00
2018-11-10T00:39:58.494Z,4.00
2018-11-10T00:40:58.532Z,4.00
2018-11-10T00:41:58.611Z,4.00
2018-11-10T00:42:58.652Z,4.00
2018-11-10T00:43:58.626Z,0.00
2018-11-10T00:44:58.662Z,0.00
2018-11-10T00:45:58.716Z,0.00
2018-11-10T00:46:58.780Z,0.00
2018-11-10T00:47:58.815Z,0.00
2018-11-10T00:48:58.795Z,0.00
2018-11-10T00:49:58.829Z,0.00
2018-11-10T00:50:58.941Z,0.00
2018-11-10T00:51:58.946Z,0.00
2018-11-10T00:52:58.974Z,0.00
2018-11-10T00:53:59.008Z,0.00
2018-11-10T00:54:59.001Z,0.00
2018-11-10T00:55:59.074Z,0.00
2018-11-10T00:56:59.062Z,0.00
2018-11-10T00:57:59.089Z,0.00
2018-11-10T00:58:59.196Z,0.00
2018-11-10T00:59:59.207Z,0.00
2018-11-10T01:00:59.243Z,0.00
2018-11-10T01:01:59.222Z,0.00
2018-11-10T01:02:59.310Z,0.00
2018-11-10T01:03:59.336Z,0.00
2018-11-10T01:04:59.378Z,0.00
2018-11-10T01:05:59.418Z,0.00
2018-11-10T01:06:59.466Z,0.00
2018-11-10T01:07:59.421Z,0.00
2018-11-10T01:08:59.456Z,0.00
2018-11-10T01:09:59.539Z,0.00
2018-11-10T01:10:59.575Z,0.00
2018-11-10T01:11:59.602Z,0.00
2018-11-10T01:12:59.586Z,0.00
2018-11-10T01:13:59.619Z,0.00
2018-11-10T01:14:59.655Z,0.00
2018-11-10T01:15:59.737Z,0.00
2018-11-10T01:16:59.718Z,0.00
2018-11-10T01:17:59.768Z,0.00
2018-11-10T01:18:59.838Z,0.00
2018-11-10T01:19:59.868Z,0.00
2018-11-10T01:20:59.900Z,0.00
2018-11-10T01:21:59.885Z,0.00
2018-11-10T01:22:59.917Z,0.00
2018-11-10T01:24:00.013Z,0.00
2018-11-10T01:24:59.983Z,0.00
2018-11-10T01:26:00.072Z,0.00
2018-11-10T01:27:00.106Z,0.00
2018-11-10T01:28:00.236Z,0.00
2018-11-10T01:29:00.118Z,0.00
2018-11-10T01:30:00.151Z,0.00
2018-11-10T01:31:00.533Z,0.00
2018-11-10T01:32:00.269Z,0.00
2018-11-10T01:33:00.248Z,0.00
2018-11-10T01:34:00.339Z,0.00
2018-11-10T01:35:00.364Z,0.00
2018-11-10T01:36:00.398Z,0.00
2018-11-10T01:37:00.435Z,0.00
2018-11-10T01:38:00.775Z,0.00
2018-11-10T01:39:00.496Z,0.00
2018-11-10T01:40:00.480Z,0.00
2018-11-10T01:41:00.511Z,0.00
2018-11-10T01:42:00.595Z,0.00
2018-11-10T01:43:00.888Z,0.00
2018-11-10T01:44:00.669Z,0.00
2018-11-10T01:45:00.720Z,0.00
2018-11-10T01:46:00.695Z,0.00
2018-11-10T01:47:00.764Z,0.00
2018-11-10T01:48:00.835Z,0.00
2018-11-10T01:49:00.779Z,0.00
2018-11-10T01:51:01.004Z,0.00
2018-11-10T01:52:00.927Z,0.00
2018-11-10T01:53:00.915Z,0.00
2018-11-10T01:54:00.942Z,0.00
2018-11-10T01:55:01.035Z,0.00
2018-11-10T01:56:01.011Z,0.00
2018-11-10T01:57:01.145Z,0.00
2018-11-10T01:59:01.166Z,0.00
2018-11-10T02:00:01.143Z,0.00
2018-11-10T02:01:01.225Z,0.00
2018-11-10T02:02:01.306Z,0.00
2018-11-10T02:04:01.322Z,0.00
2018-11-10T02:05:01.610Z,0.00
2018-11-10T02:06:01.388Z,0.00
2018-11-10T02:07:01.529Z,0.00
2018-11-10T02:08:01.409Z,0.00
2018-11-10T02:09:01.489Z,0.00
2018-11-10T02:10:01.573Z,0.00
2018-11-10T02:11:01.506Z,0.00
2018-11-10T02:12:01.536Z,0.00
2018-11-10T02:13:01.625Z,0.00
2018-11-10T02:14:01.655Z,0.00
2018-11-10T02:15:01.686Z,0.00
2018-11-10T02:17:01.763Z,0.00
2018-11-10T02:18:02.225Z,0.00
2018-11-10T02:19:01.821Z,0.00
2018-11-10T02:20:01.958Z,0.00
2018-11-10T02:21:01.836Z,0.00
2018-11-10T02:22:01.992Z,0.00
2018-11-10T02:23:01.962Z,0.00
2018-11-10T02:24:01.934Z,0.00
2018-11-10T02:25:02.025Z,0.00
2018-11-10T02:26:02.023Z,0.00
2018-11-10T02:27:02.037Z,0.00
2018-11-10T02:28:02.118Z,0.00
2018-11-10T02:29:02.149Z,0.00
2018-11-10T02:30:02.192Z,0.00
2018-11-10T02:31:02.170Z,0.00
2018-11-10T02:32:02.247Z,0.00
2018-11-10T02:33:02.283Z,0.00
2018-11-10T02:35:02.307Z,0.00
2018-11-10T02:36:02.679Z,0.00
2018-11-10T02:37:02.363Z,0.00
2018-11-10T02:38:02.397Z,0.00
2018-11-10T02:39:02.520Z,0.00
2018-11-10T02:40:02.513Z,0.00
2018-11-10T02:42:02.581Z,0.00
2018-11-10T02:43:02.861Z,0.00
2018-11-10T02:44:02.648Z,0.00
2018-11-10T02:45:02.714Z,0.00
2018-11-10T02:46:02.661Z,0.00
2018-11-10T02:47:02.767Z,0.00
2018-11-10T02:48:02.793Z,0.00
2018-11-10T02:49:02.862Z,0.00
2018-11-10T02:50:03.095Z,0.00
2018-11-10T02:51:02.876Z,0.00
2018-11-10T02:52:02.909Z,0.00
2018-11-10T02:53:02.950Z,0.00
2018-11-10T02:54:02.930Z,0.00
2018-11-10T02:55:02.956Z,0.00
2018-11-10T02:56:03.039Z,0.00
2018-11-10T02:57:03.039Z,0.00
2018-11-10T02:58:03.106Z,0.00
2018-11-10T02:59:03.101Z,0.00
2018-11-10T03:00:03.171Z,0.00
2018-11-10T03:01:03.154Z,0.00
2018-11-10T03:02:03.186Z,0.00
2018-11-10T03:03:03.579Z,0.00
2018-11-10T03:04:03.307Z,0.00
2018-11-10T03:05:03.337Z,0.00
2018-11-10T03:06:03.373Z,0.00
2018-11-10T03:07:03.352Z,0.00
2018-11-10T03:08:03.435Z,0.00
2018-11-10T03:10:04.160Z,0.00
2018-11-10T03:11:03.541Z,0.00
2018-11-10T03:12:03.524Z,0.00
2018-11-10T03:13:03.600Z,0.00
2018-11-10T03:14:03.635Z,0.00
2018-11-10T03:15:03.617Z,0.00
2018-11-10T03:16:03.701Z,0.00
2018-11-10T03:17:03.688Z,0.00
2018-11-10T03:18:03.768Z,0.00
2018-11-10T03:19:03.817Z,0.00
2018-11-10T03:20:03.839Z,0.00
2018-11-10T03:21:03.816Z,0.00
2018-11-10T03:22:03.852Z,0.00
2018-11-10T03:23:03.881Z,0.00
2018-11-10T03:24:03.971Z,0.00
2018-11-10T03:25:03.997Z,0.00
2018-11-10T03:26:03.986Z,0.00
2018-11-10T03:27:04.061Z,0.00
2018-11-10T03:28:04.095Z,0.00
2018-11-10T03:29:04.128Z,0.00
2018-11-10T03:30:04.162Z,0.00
2018-11-10T03:31:04.195Z,0.00
2018-11-10T03:32:04.178Z,0.00
2018-11-10T03:33:04.277Z,0.00
2018-11-10T03:34:04.595Z,0.00
2018-11-10T03:35:04.328Z,0.00
2018-11-10T03:36:04.359Z,0.00
2018-11-10T03:37:04.395Z,0.00
2018-11-10T03:38:04.428Z,0.00
2018-11-10T03:40:04.491Z,0.00
2018-11-10T03:41:04.824Z,0.00
2018-11-10T03:42:04.561Z,0.00
2018-11-10T03:43:04.596Z,0.00
2018-11-10T03:44:04.573Z,0.00
2018-11-10T03:45:04.605Z,0.00
2018-11-10T03:46:04.639Z,0.00
2018-11-10T03:47:04.721Z,0.00
2018-11-10T03:49:05.046Z,0.00
2018-11-10T03:50:04.820Z,0.00
2018-11-10T03:52:04.887Z,0.00
2018-11-10T03:53:04.872Z,0.00
2018-11-10T03:54:04.956Z,0.00
2018-11-10T03:55:05.001Z,0.00
2018-11-10T03:56:05.274Z,0.00
2018-11-10T03:57:05.006Z,0.00
2018-11-10T03:59:05.133Z,0.00
2018-11-10T04:02:05.229Z,0.00
2018-11-10T04:03:05.260Z,0.00
2018-11-10T04:04:05.303Z,0.00
2018-11-10T04:05:05.318Z,0.00
2018-11-10T04:07:05.400Z,0.00
2018-11-10T04:08:05.532Z,0.00
2018-11-10T04:09:05.548Z,0.00
2018-11-10T04:10:05.491Z,0.00
2018-11-10T04:11:05.518Z,0.00
2018-11-10T04:13:05.537Z,0.00
2018-11-10T04:14:05.568Z,0.00
2018-11-10T04:15:05.653Z,0.00
2018-11-10T04:16:05.686Z,0.00
2018-11-10T04:17:05.664Z,0.00
2018-11-10T04:19:05.783Z,0.00
2018-11-10T04:20:05.840Z,0.00
2018-11-10T04:21:05.955Z,0.00
2018-11-10T04:22:05.895Z,0.00
2018-11-10T04:23:05.918Z,0.00
2018-11-10T04:24:05.896Z,0.00
2018-11-10T04:26:06.025Z,0.00
2018-11-10T04:27:06.474Z,0.00
2018-11-10T04:28:06.079Z,0.00
2018-11-10T04:29:06.112Z,0.00
2018-11-10T04:30:06.160Z,0.00
2018-11-10T04:32:06.471Z,0.00
2018-11-10T04:33:06.503Z,0.00
2018-11-10T04:35:06.335Z,0.00
2018-11-10T04:38:06.406Z,0.00
2018-11-10T04:39:06.442Z,0.00
2018-11-10T04:40:06.473Z,0.00
2018-11-10T04:41:06.454Z,0.00
2018-11-10T04:42:06.538Z,0.00
2018-11-10T04:43:06.588Z,0.00
2018-11-10T04:44:06.606Z,0.00
2018-11-10T04:46:06.670Z,0.00
2018-11-10T04:48:06.987Z,0.00
2018-11-10T04:49:06.721Z,0.00
2018-11-10T04:50:06.802Z,0.00
2018-11-10T04:51:06.792Z,0.00
2018-11-10T05:18:30.359Z,0.00
2018-11-10T05:19:30.387Z,0.00
2018-11-10T05:20:30.371Z,0.00
2018-11-10T05:21:30.411Z,0.00
2018-11-10T05:22:30.447Z,0.00
2018-11-10T05:23:30.520Z,0.00
2018-11-10T05:24:30.805Z,0.00
2018-11-10T05:25:30.560Z,0.00
2018-11-10T05:26:30.567Z,0.00
2018-11-10T05:27:30.753Z,0.00
2018-11-10T05:28:30.686Z,0.00
2018-11-10T05:29:30.669Z,0.00
2018-11-10T05:30:30.701Z,0.00
2018-11-10T05:31:31.093Z,0.00
2018-11-10T05:32:30.817Z,0.00
2018-11-10T05:33:30.852Z,0.00
2018-11-10T05:34:30.831Z,0.00
2018-11-10T05:35:30.915Z,0.00
2018-11-10T05:36:30.947Z,0.00
2018-11-10T05:37:31.005Z,0.00
2018-11-10T05:38:30.968Z,0.00
2018-11-10T05:39:31.007Z,0.00
2018-11-10T05:40:31.034Z,0.00
2018-11-10T05:41:31.172Z,0.00
2018-11-10T05:42:31.145Z,0.00
2018-11-10T05:44:31.162Z,0.00
2018-11-10T05:45:31.502Z,0.00
2018-11-10T05:46:31.230Z,0.00
2018-11-10T05:47:31.414Z,0.00
2018-11-10T05:48:31.297Z,0.00
2018-11-10T05:49:31.381Z,0.00
2018-11-10T05:50:31.363Z,0.00
2018-11-10T05:51:31.444Z,0.00
2018-11-10T05:52:31.786Z,0.00
2018-11-10T05:53:31.513Z,0.00
2018-11-10T05:54:31.510Z,0.00
2018-11-10T05:55:31.579Z,0.00
2018-11-10T05:56:31.564Z,0.00
2018-11-10T05:57:31.651Z,0.00
2018-11-10T05:58:31.794Z,0.00
2018-11-10T05:59:31.766Z,0.00
2018-11-10T06:00:31.691Z,0.00
2018-11-10T06:01:31.775Z,0.00
2018-11-10T06:03:31.840Z,0.00
2018-11-10T06:04:31.878Z,0.00
2018-11-10T06:05:32.164Z,0.00
2018-11-10T06:06:32.028Z,0.00
2018-11-10T06:07:31.975Z,0.00
2018-11-10T06:08:32.011Z,0.00
2018-11-10T06:09:32.079Z,0.00
2018-11-10T06:10:32.237Z,0.00
2018-11-10T06:11:32.071Z,0.00
2018-11-10T06:12:32.141Z,0.00
2018-11-10T06:13:32.174Z,0.00
2018-11-10T06:14:32.221Z,0.00
2018-11-10T06:16:32.273Z,0.00
2018-11-10T06:17:32.557Z,0.00
2018-11-10T06:18:32.343Z,0.00
2018-11-10T06:19:32.333Z,0.00
2018-11-10T06:20:32.369Z,0.00
2018-11-10T06:21:32.517Z,0.00
2018-11-10T06:22:32.419Z,0.00
2018-11-10T06:23:32.452Z,0.00
2018-11-10T06:24:32.486Z,0.00
2018-11-10T06:25:32.570Z,4.00
2018-11-10T06:26:32.601Z,4.00
2018-11-10T06:27:32.582Z,4.00
2018-11-10T06:28:32.666Z,4.00
2018-11-10T06:29:32.770Z,0.00
2018-11-10T06:30:32.795Z,4.00
2018-11-10T06:31:32.717Z,4.00
2018-11-10T06:32:32.775Z,4.00
2018-11-10T06:33:32.842Z,4.00
2018-11-10T06:34:32.866Z,4.00
2018-11-10T06:36:32.894Z,8.00
2018-11-10T06:37:33.242Z,8.00
2018-11-10T06:38:32.997Z,8.00
2018-11-10T06:41:33.166Z,8.00
2018-11-10T06:42:33.134Z,8.00
2018-11-10T06:43:33.164Z,12.00
2018-11-10T06:44:33.496Z,12.00
2018-11-10T06:45:33.348Z,12.00
2018-11-10T06:46:33.262Z,12.00
2018-11-10T06:47:33.253Z,12.00
2018-11-10T06:48:33.331Z,16.00
2018-11-10T06:49:33.366Z,16.00
2018-11-10T06:50:33.369Z,16.00
2018-11-10T06:51:33.679Z,20.00
2018-11-10T06:52:33.561Z,20.00
2018-11-10T06:53:33.508Z,20.00
2018-11-10T06:54:33.491Z,20.00
2018-11-10T06:55:33.509Z,20.00
2018-11-10T06:56:33.585Z,24.00
2018-11-10T06:57:33.575Z,20.00
2018-11-10T06:58:33.663Z,24.00
2018-11-10T06:59:33.643Z,28.00
2018-11-10T07:00:33.684Z,28.00
2018-11-10T07:01:33.758Z,32.00
2018-11-10T07:02:33.792Z,32.00
2018-11-10T07:03:33.860Z,36.00
2018-11-10T07:04:33.820Z,32.00
2018-11-10T07:05:33.890Z,36.00
2018-11-10T07:06:33.875Z,36.00
2018-11-10T07:07:33.909Z,40.00
2018-11-10T07:08:33.993Z,40.00
2018-11-10T07:09:34.059Z,40.00
2018-11-10T07:10:34.311Z,40.00
2018-11-10T07:11:34.052Z,40.00
2018-11-10T07:12:34.076Z,44.00
2018-11-10T07:13:34.257Z,52.00
2018-11-10T07:14:34.187Z,60.00
2018-11-10T07:15:34.290Z,76.00
2018-11-10T07:17:34.636Z,108.00
2018-11-10T07:18:34.343Z,108.00
2018-11-10T07:19:34.305Z,112.00
2018-11-10T07:20:34.338Z,112.00
2018-11-10T07:21:34.421Z,116.00
2018-11-10T07:23:34.484Z,136.00
2018-11-10T07:24:34.822Z,152.00
2018-11-10T07:25:34.556Z,176.00
2018-11-10T07:26:34.637Z,196.00
2018-11-10T07:27:34.585Z,196.00
2018-11-10T07:28:34.650Z,196.00
2018-11-10T07:31:34.750Z,208.00
2018-11-10T07:34:35.101Z,204.00
2018-11-10T07:35:34.890Z,184.00
2018-11-10T07:36:34.922Z,180.00
2018-11-10T07:38:34.969Z,160.00
2018-11-10T07:39:34.981Z,144.00
2018-11-10T07:40:35.087Z,128.00
2018-11-10T07:41:35.388Z,112.00
2018-11-10T07:42:35.162Z,112.00
2018-11-10T07:43:35.154Z,116.00
2018-11-10T07:44:35.246Z,124.00
2018-11-10T07:46:35.210Z,136.00
2018-11-10T07:47:35.257Z,140.00
2018-11-10T07:48:35.310Z,140.00
2018-11-10T07:49:35.348Z,132.00
2018-11-10T07:50:35.388Z,136.00
2018-11-10T07:51:35.363Z,144.00
2018-11-10T07:52:35.393Z,144.00
2018-11-10T07:53:35.728Z,140.00
2018-11-10T07:54:35.509Z,140.00
2018-11-10T07:55:35.493Z,144.00
2018-11-10T07:56:35.531Z,156.00
2018-11-10T07:57:35.608Z,168.00
2018-11-10T07:58:35.591Z,184.00
2018-11-10T07:59:35.925Z,200.00
2018-11-10T08:00:35.657Z,220.00
2018-11-10T08:01:35.741Z,232.00
2018-11-10T08:02:35.727Z,260.00
2018-11-10T08:03:35.765Z,280.00
2018-11-10T08:04:35.842Z,292.00
2018-11-10T08:05:35.876Z,292.00
2018-11-10T08:06:36.158Z,304.00
2018-11-10T08:07:35.890Z,312.00
2018-11-10T08:08:35.977Z,304.00
2018-11-10T08:09:36.006Z,284.00
2018-11-10T08:10:35.987Z,264.00
2018-11-10T08:11:36.094Z,264.00
2018-11-10T08:12:36.105Z,280.00
2018-11-10T08:13:36.391Z,296.00
2018-11-10T08:15:36.212Z,328.00
2018-11-10T08:16:36.240Z,348.00
2018-11-10T08:17:36.268Z,372.00
2018-11-10T08:18:36.342Z,380.00
2018-11-10T08:19:36.339Z,392.00
2018-11-10T08:20:36.620Z,428.00
2018-11-10T08:21:36.402Z,468.00
2018-11-10T08:22:36.435Z,476.00
2018-11-10T08:23:36.468Z,460.00
2018-11-10T08:24:36.450Z,436.00
2018-11-10T08:26:36.516Z,372.00
2018-11-10T08:27:36.849Z,368.00
2018-11-10T08:28:36.642Z,372.00
2018-11-10T08:30:36.649Z,384.00
2018-11-10T08:32:37.292Z,420.00
2018-11-10T08:33:36.900Z,416.00
2018-11-10T08:34:37.083Z,420.00
2018-11-10T08:35:36.813Z,436.00
2018-11-10T08:36:36.896Z,432.00
2018-11-10T08:38:36.912Z,504.00
2018-11-10T08:39:37.001Z,520.00
2018-11-10T08:40:37.089Z,536.00
2018-11-10T08:41:37.068Z,524.00
2018-11-10T08:42:37.147Z,460.00
2018-11-10T08:43:37.179Z,412.00
2018-11-10T08:44:37.161Z,408.00
2018-11-10T08:45:37.195Z,392.00
2018-11-10T08:46:37.178Z,384.00
2018-11-10T08:47:37.510Z,392.00
2018-11-10T08:48:37.245Z,428.00
2018-11-10T08:49:37.352Z,484.00
2018-11-10T08:50:37.361Z,524.00
2018-11-10T08:51:37.344Z,552.00
2018-11-10T08:52:37.375Z,552.00
2018-11-10T08:53:37.461Z,500.00
2018-11-10T08:54:37.744Z,444.00
2018-11-10T08:55:37.532Z,400.00
2018-11-10T08:56:37.561Z,368.00
2018-11-10T08:57:37.687Z,344.00
2018-11-10T09:00:37.640Z,336.00
2018-11-10T09:01:37.978Z,320.00
2018-11-10T09:02:37.860Z,312.00
2018-11-10T09:03:37.853Z,324.00
2018-11-10T09:04:37.779Z,324.00
2018-11-10T09:05:37.858Z,296.00
2018-11-10T09:06:37.839Z,280.00
2018-11-10T09:07:38.173Z,288.00
2018-11-10T09:08:37.915Z,304.00
2018-11-10T09:09:37.979Z,328.00
2018-11-10T09:10:37.976Z,352.00
2018-11-10T09:11:38.007Z,364.00
2018-11-10T09:12:38.090Z,372.00
2018-11-10T09:13:38.377Z,356.00
2018-11-10T09:14:38.104Z,348.00
2018-11-10T09:15:38.190Z,352.00
2018-11-10T09:16:38.185Z,344.00
2018-11-10T09:17:38.312Z,364.00
2018-11-10T09:18:38.289Z,352.00
2018-11-10T09:19:38.289Z,336.00
2018-11-10T09:20:38.316Z,324.00
2018-11-10T09:21:38.509Z,312.00
2018-11-10T09:22:38.368Z,292.00
2018-11-10T09:23:38.453Z,280.00
2018-11-10T09:24:38.439Z,280.00
2018-11-10T09:25:38.771Z,280.00
2018-11-10T09:26:38.604Z,292.00
2018-11-10T09:27:38.641Z,304.00
2018-11-10T09:29:38.652Z,292.00
2018-11-10T09:30:38.722Z,280.00
2018-11-10T09:31:38.670Z,280.00
2018-11-10T09:32:39.004Z,284.00
2018-11-10T09:33:38.786Z,288.00
2018-11-10T09:34:38.823Z,304.00
2018-11-10T09:35:38.861Z,320.00
2018-11-10T09:36:38.911Z,328.00
2018-11-10T09:37:38.870Z,340.00
2018-11-10T09:38:38.950Z,352.00
2018-11-10T09:39:39.245Z,400.00
2018-11-10T09:40:39.023Z,448.00
2018-11-10T09:41:39.053Z,504.00
2018-11-10T09:42:39.336Z,528.00
2018-11-10T09:43:39.073Z,520.00
2018-11-10T09:44:39.160Z,500.00
2018-11-10T09:45:39.301Z,480.00
2018-11-10T09:46:39.474Z,456.00
2018-11-10T09:47:39.204Z,464.00
2018-11-10T09:48:39.230Z,476.00
2018-11-10T09:50:39.358Z,500.00
2018-11-10T09:51:39.332Z,528.00
2018-11-10T09:52:39.363Z,568.00
2018-11-10T09:53:39.708Z,596.00
2018-11-10T09:54:39.432Z,608.00
2018-11-10T09:55:39.522Z,636.00
2018-11-10T09:57:39.582Z,724.00
2018-11-10T09:58:39.562Z,752.00
2018-11-10T09:59:39.594Z,752.00
2018-11-10T10:00:39.930Z,720.00
2018-11-10T10:02:40.278Z,676.00
2018-11-10T10:03:39.737Z,656.00
2018-11-10T10:04:39.784Z,652.00
2018-11-10T10:05:39.854Z,668.00
2018-11-10T10:06:39.880Z,700.00
2018-11-10T10:07:40.166Z,732.00
2018-11-10T10:08:39.951Z,748.00
2018-11-10T10:09:39.982Z,768.00
2018-11-10T10:10:39.964Z,760.00
2018-11-10T10:11:40.043Z,764.00
2018-11-10T10:12:40.036Z,780.00
2018-11-10T10:13:40.120Z,784.00
2018-11-10T10:14:40.397Z,788.00
2018-11-10T10:15:40.229Z,792.00
2018-11-10T10:16:40.334Z,808.00
2018-11-10T10:17:40.258Z,796.00
2018-11-10T10:18:40.225Z,764.00
2018-11-10T10:19:40.262Z,740.00
2018-11-10T10:20:40.341Z,696.00
2018-11-10T10:21:40.647Z,636.00
2018-11-10T10:22:40.415Z,604.00
2018-11-10T10:23:40.442Z,580.00
2018-11-10T10:24:40.425Z,572.00
2018-11-10T10:25:40.464Z,584.00
2018-11-10T10:26:40.544Z,596.00
2018-11-10T10:27:40.837Z,600.00
2018-11-10T10:28:40.569Z,612.00
2018-11-10T10:29:40.641Z,608.00
2018-11-10T10:30:40.680Z,588.00
2018-11-10T10:31:40.761Z,568.00
2018-11-10T10:32:40.744Z,544.00
2018-11-10T10:33:41.029Z,532.00
2018-11-10T10:34:40.931Z,528.00
2018-11-10T10:35:41.009Z,528.00
2018-11-10T10:36:40.874Z,548.00
2018-11-10T10:37:40.911Z,568.00
2018-11-10T10:38:40.940Z,580.00
2018-11-10T10:39:41.227Z,588.00
2018-11-10T10:40:40.959Z,584.00
2018-11-10T10:41:41.090Z,572.00
2018-11-10T10:42:41.108Z,568.00
2018-11-10T10:43:41.106Z,568.00
2018-11-10T10:44:41.141Z,568.00
2018-11-10T10:45:41.174Z,572.00
2018-11-10T10:47:41.541Z,564.00
2018-11-10T10:48:41.360Z,572.00
2018-11-10T10:49:41.256Z,580.00
2018-11-10T10:50:41.343Z,596.00
2018-11-10T10:51:41.333Z,608.00
2018-11-10T10:52:41.363Z,628.00
2018-11-10T10:53:41.691Z,640.00
2018-11-10T10:54:41.475Z,656.00
2018-11-10T10:55:41.464Z,668.00
2018-11-10T10:56:41.493Z,676.00
2018-11-10T10:57:41.577Z,680.00
2018-11-10T10:58:41.608Z,672.00
2018-11-10T10:59:41.591Z,664.00
2018-11-10T11:00:42.026Z,660.00
2018-11-10T11:01:41.657Z,660.00
2018-11-10T11:02:42.088Z,660.00
2018-11-10T11:03:41.778Z,660.00
2018-11-10T11:04:41.757Z,660.00
2018-11-10T11:05:41.840Z,668.00
2018-11-10T11:06:41.834Z,672.00
2018-11-10T11:07:42.158Z,676.00
2018-11-10T11:08:41.942Z,676.00
2018-11-10T11:09:42.104Z,668.00
2018-11-10T11:11:42.053Z,680.00
2018-11-10T11:12:42.075Z,676.00
2018-11-10T11:13:42.113Z,672.00
2018-11-10T11:14:42.406Z,644.00
2018-11-10T11:15:42.230Z,616.00
2018-11-10T11:16:42.189Z,584.00
2018-11-10T11:17:42.244Z,556.00
2018-11-10T11:19:42.408Z,512.00
2018-11-10T11:20:42.362Z,496.00
2018-11-10T11:21:42.635Z,496.00
2018-11-10T11:22:42.411Z,492.00
2018-11-10T11:23:42.393Z,496.00
2018-11-10T11:24:42.473Z,492.00
2018-11-10T11:25:42.521Z,516.00
2018-11-10T11:26:42.564Z,536.00
2018-11-10T11:27:42.624Z,548.00
2018-11-10T11:29:42.700Z,556.00
2018-11-10T11:30:42.709Z,560.00
2018-11-10T11:31:42.748Z,556.00
2018-11-10T11:32:42.706Z,560.00
2018-11-10T11:33:42.881Z,560.00
2018-11-10T11:34:42.832Z,560.00
2018-11-10T11:35:43.147Z,564.00
2018-11-10T11:37:42.915Z,528.00
2018-11-10T11:38:42.940Z,524.00
2018-11-10T11:39:42.999Z,520.00
2018-11-10T11:40:43.108Z,520.00
2018-11-10T11:41:43.192Z,508.00
2018-11-10T11:43:43.359Z,476.00
2018-11-10T11:44:43.143Z,460.00
2018-11-10T11:45:43.196Z,444.00
2018-11-10T11:46:43.161Z,436.00
2018-11-10T11:47:43.259Z,436.00
2018-11-10T11:48:43.584Z,444.00
2018-11-10T11:49:43.571Z,448.00
2018-11-10T11:50:43.640Z,468.00
2018-11-10T11:51:43.500Z,492.00
2018-11-10T11:52:43.380Z,516.00
2018-11-10T11:53:43.391Z,540.00
2018-11-10T11:54:43.442Z,556.00
2018-11-10T11:55:43.643Z,568.00
2018-11-10T11:56:43.491Z,568.00
2018-11-10T11:57:44.222Z,564.00
2018-11-10T11:58:43.631Z,568.00
2018-11-10T11:59:48.681Z,548.00
2018-11-10T12:00:43.719Z,560.00
2018-11-10T12:01:43.815Z,556.00
2018-11-10T12:02:43.709Z,556.00
2018-11-10T12:03:43.776Z,556.00
2018-11-10T12:04:44.059Z,560.00
2018-11-10T12:05:43.864Z,572.00
2018-11-10T12:06:43.982Z,588.00
2018-11-10T12:07:43.912Z,596.00
2018-11-10T12:08:44.458Z,600.00
2018-11-10T12:09:43.983Z,596.00
2018-11-10T12:10:43.968Z,592.00
2018-11-10T12:11:44.297Z,588.00
2018-11-10T12:12:44.083Z,576.00
2018-11-10T12:13:44.108Z,564.00
2018-11-10T12:14:44.143Z,568.00
2018-11-10T12:15:44.124Z,584.00
2018-11-10T12:17:44.266Z,584.00
2018-11-10T12:18:44.581Z,564.00
2018-11-10T12:19:44.324Z,568.00
2018-11-10T12:21:44.381Z,556.00
2018-11-10T12:22:44.462Z,536.00
2018-11-10T12:23:44.786Z,564.00
2018-11-10T12:24:58.318Z,576.00
2018-11-10T12:25:44.471Z,588.00
2018-11-10T12:26:44.589Z,608.00
2018-11-10T12:27:44.603Z,616.00
2018-11-10T12:28:44.609Z,616.00
2018-11-10T12:29:44.650Z,600.00
2018-11-10T12:31:44.757Z,612.00
2018-11-10T12:32:44.991Z,620.00
2018-11-10T12:34:44.863Z,652.00
2018-11-10T12:35:44.868Z,692.00
2018-11-10T12:36:44.835Z,724.00
2018-11-10T12:37:44.928Z,748.00
2018-11-10T12:38:45.261Z,768.00
2018-11-10T12:39:44.935Z,772.00
2018-11-10T12:40:45.030Z,756.00
2018-11-10T12:41:45.048Z,736.00
2018-11-10T12:42:45.335Z,740.00
2018-11-10T12:43:45.078Z,748.00
2018-11-10T12:44:45.165Z,768.00
2018-11-10T12:46:45.217Z,788.00
2018-11-10T12:48:45.248Z,800.00
2018-11-10T12:50:45.455Z,788.00
2018-11-10T12:51:45.647Z,792.00
2018-11-10T12:52:45.384Z,796.00
2018-11-10T12:53:45.467Z,828.00
2018-11-10T12:54:45.495Z,836.00
2018-11-10T12:55:45.524Z,856.00
2018-11-10T12:56:45.598Z,868.00
2018-11-10T12:57:45.863Z,892.00
2018-11-10T12:58:45.659Z,916.00
2018-11-10T12:59:45.716Z,928.00
2018-11-10T13:00:45.636Z,940.00
2018-11-10T13:01:45.780Z,952.00
2018-11-10T13:02:45.695Z,956.00
2018-11-10T13:04:45.811Z,940.00
2018-11-10T13:05:46.098Z,920.00
2018-11-10T13:06:45.878Z,948.00
2018-11-10T13:07:45.912Z,948.00
2018-11-10T13:08:45.905Z,952.00
2018-11-10T13:09:45.981Z,956.00
2018-11-10T13:10:46.045Z,940.00
2018-11-10T13:11:46.357Z,908.00
2018-11-10T13:12:46.332Z,880.00
2018-11-10T13:13:46.121Z,884.00
2018-11-10T13:14:46.099Z,852.00
2018-11-10T13:15:46.181Z,820.00
2018-11-10T13:16:46.213Z,784.00
2018-11-10T13:17:46.310Z,760.00
2018-11-10T13:18:46.233Z,744.00
2018-11-10T13:19:46.568Z,744.00
2018-11-10T13:21:46.382Z,760.00
2018-11-10T13:22:46.415Z,748.00
2018-11-10T13:23:46.399Z,728.00
2018-11-10T13:24:46.518Z,604.00
2018-11-10T13:26:46.550Z,620.00
2018-11-10T13:27:46.881Z,644.00
2018-11-10T13:28:46.565Z,668.00
2018-11-10T13:29:46.655Z,736.00
2018-11-10T13:31:46.796Z,788.00
2018-11-10T13:32:46.698Z,816.00
2018-11-10T13:33:46.794Z,800.00
2018-11-10T13:34:47.093Z,796.00
2018-11-10T13:35:46.873Z,784.00
2018-11-10T13:36:46.834Z,772.00
2018-11-10T13:37:46.932Z,728.00
2018-11-10T13:38:47.041Z,692.00
2018-11-10T13:39:46.933Z,664.00
2018-11-10T13:40:47.112Z,608.00
2018-11-10T13:41:47.052Z,600.00
2018-11-10T13:42:47.076Z,556.00
2018-11-10T13:43:47.130Z,568.00
2018-11-10T13:44:47.173Z,556.00
2018-11-10T13:45:47.189Z,532.00
2018-11-10T13:46:47.217Z,480.00
2018-11-10T13:47:47.505Z,404.00
2018-11-10T13:48:47.285Z,412.00
2018-11-10T13:49:47.342Z,412.00
2018-11-10T13:51:47.737Z,508.00
2018-11-10T13:52:47.767Z,524.00
2018-11-10T13:53:47.644Z,520.00
2018-11-10T13:54:47.891Z,516.00
2018-11-10T13:55:47.534Z,504.00
2018-11-10T13:56:47.558Z,484.00
2018-11-10T13:57:47.590Z,464.00
2018-11-10T13:59:47.658Z,408.00
2018-11-10T14:01:47.728Z,380.00
2018-11-10T14:03:48.053Z,388.00
2018-11-10T14:04:47.780Z,348.00
2018-11-10T14:05:47.859Z,360.00
2018-11-10T14:06:47.900Z,388.00
2018-11-10T14:07:47.928Z,368.00
2018-11-10T14:08:47.936Z,384.00
2018-11-10T14:09:47.992Z,400.00
2018-11-10T14:10:48.279Z,380.00
2018-11-10T14:11:48.013Z,376.00
2018-11-10T14:12:48.189Z,360.00
2018-11-10T14:13:48.140Z,372.00
2018-11-10T14:14:48.207Z,372.00
2018-11-10T14:15:48.173Z,372.00
2018-11-10T14:16:48.198Z,360.00
2018-11-10T14:17:48.511Z,324.00
2018-11-10T14:18:48.333Z,320.00
2018-11-10T14:19:48.340Z,320.00
2018-11-10T14:20:48.485Z,320.00
2018-11-10T14:21:48.345Z,312.00
2018-11-10T14:22:48.381Z,308.00
2018-11-10T14:23:48.535Z,356.00
2018-11-10T14:24:48.801Z,304.00
2018-11-10T14:25:48.558Z,272.00
2018-11-10T14:26:48.566Z,284.00
2018-11-10T14:27:48.561Z,320.00